Observations
| Time | Sensor | AQI | SAQ | Temp °C | Hum % | Pres Pa | CO μg/m³ | H₂S μg/m³ | NO μg/m³ | NO₂ μg/m³ | O₃ μg/m³ | SO₂ μg/m³ | CO₂e PPM | VOC PPM | PM1 μg/m³ | PM2.5 μg/m³ | PM4 μg/m³ | PM10 μg/m³ | TPS µm |
|---|---|---|---|---|---|---|---|---|---|---|---|---|---|---|---|---|---|---|---|
| Wednesday 12 August 2026 | |||||||||||||||||||
| 03:09 | Trim Market St | 2 | 19.4 | 64 | 57,441 | 0.04 | 0 | 1.25 | 14.11 | 59.42 | 0 | 2.14 | 3.82 | 5.55 | |||||
| 03:09 | Trim Patrick St | 2 | 18.7 | 69 | 111,397 | 0 | 0.04 | 1.3 | 19.56 | 36.35 | 0 | 4.57 | 8.86 | 9.75 | |||||
| 03:08 | Trim Market St | 2 | 19.4 | 64 | 57,445 | 0.04 | 0 | 1.25 | 13.26 | 56.51 | 0 | 1.43 | 3.32 | 4.89 | |||||
| 03:08 | Trim Patrick St | 2 | 18.6 | 68 | 110,891 | 0 | 1.73 | 1.3 | 12.5 | 38.03 | 0 | 4.57 | 9.63 | 10.59 | |||||
| 03:07 | Trim Market St | 2 | 19.4 | 64 | 57,446 | 0.03 | 0 | 1.26 | 14.93 | 61.48 | 0 | 2.14 | 3.32 | 4.89 | |||||
| 03:07 | Trim Patrick St | 2 | 18.7 | 68 | 110,699 | 0.01 | 5.9 | 1.28 | 19.24 | 54.34 | 0 | 4.57 | 8.88 | 9.77 | |||||
| 03:06 | Trim Market St | 2 | 19.4 | 64 | 57,451 | 0.05 | 0 | 1.28 | 11.91 | 53.94 | 0 | 1.43 | 2.82 | 4.23 | |||||
| 03:05 | Trim Market St | 2 | 19.4 | 64 | 57,449 | 0.04 | 0 | 1.27 | 12.3 | 67.95 | 0 | 2.14 | 3.31 | 5.55 | |||||
| 03:05 | Trim Patrick St | 2 | 18.7 | 68 | 107,955 | 0.01 | 4.9 | 1.28 | 15.79 | 40.32 | 0 | 5.43 | 10.33 | 11.37 | |||||
| 03:04 | Trim Market St | 2 | 19.4 | 64 | 57,452 | 0.03 | 0 | 1.25 | 24.99 | 59.53 | 0 | 1.43 | 2.82 | 4.23 | |||||
| 03:03 | Trim Market St | 2 | 19.4 | 64 | 57,464 | 0.03 | 0 | 1.26 | 12.29 | 58.31 | 0 | 1.43 | 3.32 | 4.89 | |||||
| 03:02 | Trim Market St | 2 | 19.4 | 64 | 57,473 | 0.05 | 0 | 1.25 | 27.45 | 58.81 | 0 | 1.43 | 2.83 | 4.22 | |||||
| 03:02 | Trim Patrick St | 2 | 18.7 | 68 | 106,340 | 0.01 | 4.56 | 1.33 | 22.94 | 50.84 | 0.08 | 4.57 | 8.19 | 9.01 | |||||
| 03:01 | Trim Market St | 2 | 19.4 | 64 | 57,482 | 0.03 | 0 | 1.24 | 12.91 | 62.98 | 0 | 2.14 | 4.81 | 6.87 | |||||
| 03:01 | Trim Patrick St | 2 | 18.7 | 68 | 105,722 | 0.01 | 2.04 | 1.32 | 13.79 | 41.4 | 0 | 4.57 | 8.88 | 9.76 | |||||
| 03:00 | Trim Market St | 2 | 19.4 | 64 | 57,485 | 0.04 | 0 | 1.24 | 16.64 | 61.09 | 0 | 1.43 | 3.83 | 6.21 | |||||
| 03:00 | Trim Patrick St | 2 | 18.7 | 69 | 105,175 | 0 | 3.56 | 1.31 | 25.82 | 35.33 | 0 | 4.57 | 8.86 | 9.75 | |||||
| 02:59 | Trim Market St | 2 | 19.4 | 64 | 57,495 | 0.04 | 0 | 1.25 | 21.44 | 58.83 | 0 | 0.71 | 2.84 | 4.88 | |||||
| 02:59 | Trim Patrick St | 2 | 18.7 | 68 | 106,378 | 0 | 4.16 | 1.32 | 23.77 | 47.61 | 0 | 2.86 | 9.62 | 10.58 | |||||
| 02:58 | Trim Market St | 2 | 19.4 | 64 | 57,500 | 0.04 | 0 | 1.26 | 12.74 | 61.14 | 0 | 0.71 | 3.83 | 5.54 | |||||